sensor_id;sensor_type;location;lat;lon;timestamp;temperature;humidity
32394;DHT22;18853;45.426;9.206;2024-02-26T00:02:18;14.80;57.80
32394;DHT22;18853;45.426;9.206;2024-02-26T00:04:44;14.70;57.80
32394;DHT22;18853;45.426;9.206;2024-02-26T00:07:09;14.70;57.70
32394;DHT22;18853;45.426;9.206;2024-02-26T00:09:35;14.70;57.60
32394;DHT22;18853;45.426;9.206;2024-02-26T00:12:03;14.70;57.70
32394;DHT22;18853;45.426;9.206;2024-02-26T00:14:32;14.70;57.90
32394;DHT22;18853;45.426;9.206;2024-02-26T00:16:57;14.70;58.00
32394;DHT22;18853;45.426;9.206;2024-02-26T00:19:23;14.60;57.90
32394;DHT22;18853;45.426;9.206;2024-02-26T00:21:48;14.70;57.90
32394;DHT22;18853;45.426;9.206;2024-02-26T00:24:14;14.70;57.80
32394;DHT22;18853;45.426;9.206;2024-02-26T00:26:39;14.60;57.60
32394;DHT22;18853;45.426;9.206;2024-02-26T00:29:05;14.60;57.60
32394;DHT22;18853;45.426;9.206;2024-02-26T00:31:31;14.60;57.60
32394;DHT22;18853;45.426;9.206;2024-02-26T00:33:56;14.60;57.70
32394;DHT22;18853;45.426;9.206;2024-02-26T00:36:22;14.50;57.60
32394;DHT22;18853;45.426;9.206;2024-02-26T00:38:47;14.50;57.70
32394;DHT22;18853;45.426;9.206;2024-02-26T00:41:17;14.60;57.90
32394;DHT22;18853;45.426;9.206;2024-02-26T00:43:43;14.50;57.70
32394;DHT22;18853;45.426;9.206;2024-02-26T00:46:08;14.50;57.70
32394;DHT22;18853;45.426;9.206;2024-02-26T00:48:34;14.50;58.20
32394;DHT22;18853;45.426;9.206;2024-02-26T00:50:59;14.40;57.60
32394;DHT22;18853;45.426;9.206;2024-02-26T00:53:25;14.40;57.60
32394;DHT22;18853;45.426;9.206;2024-02-26T00:55:51;14.40;57.60
32394;DHT22;18853;45.426;9.206;2024-02-26T00:58:16;14.40;57.50
32394;DHT22;18853;45.426;9.206;2024-02-26T01:00:42;14.40;57.60
32394;DHT22;18853;45.426;9.206;2024-02-26T01:03:08;14.40;57.30
32394;DHT22;18853;45.426;9.206;2024-02-26T01:05:35;14.30;57.40
32394;DHT22;18853;45.426;9.206;2024-02-26T01:08:01;14.30;57.40
32394;DHT22;18853;45.426;9.206;2024-02-26T01:10:27;14.40;57.30
32394;DHT22;18853;45.426;9.206;2024-02-26T01:12:52;14.30;57.20
32394;DHT22;18853;45.426;9.206;2024-02-26T01:15:18;14.40;57.40
32394;DHT22;18853;45.426;9.206;2024-02-26T01:17:47;14.40;57.50
32394;DHT22;18853;45.426;9.206;2024-02-26T01:20:13;14.30;57.00
32394;DHT22;18853;45.426;9.206;2024-02-26T01:22:38;14.40;57.10
32394;DHT22;18853;45.426;9.206;2024-02-26T01:25:06;14.40;57.10
32394;DHT22;18853;45.426;9.206;2024-02-26T01:27:32;14.40;56.90
32394;DHT22;18853;45.426;9.206;2024-02-26T01:29:58;14.40;56.70
32394;DHT22;18853;45.426;9.206;2024-02-26T01:32:23;14.30;56.90
32394;DHT22;18853;45.426;9.206;2024-02-26T01:34:49;14.30;57.30
32394;DHT22;18853;45.426;9.206;2024-02-26T01:37:15;14.30;57.30
32394;DHT22;18853;45.426;9.206;2024-02-26T01:39:40;14.40;57.40
32394;DHT22;18853;45.426;9.206;2024-02-26T01:42:07;14.30;57.10
32394;DHT22;18853;45.426;9.206;2024-02-26T01:44:33;14.30;57.10
32394;DHT22;18853;45.426;9.206;2024-02-26T01:46:59;14.30;57.40
32394;DHT22;18853;45.426;9.206;2024-02-26T01:49:27;14.30;57.30
32394;DHT22;18853;45.426;9.206;2024-02-26T01:51:53;14.40;57.30
32394;DHT22;18853;45.426;9.206;2024-02-26T01:54:18;14.30;57.40
32394;DHT22;18853;45.426;9.206;2024-02-26T01:56:44;14.30;57.40
32394;DHT22;18853;45.426;9.206;2024-02-26T01:59:10;14.30;57.10
32394;DHT22;18853;45.426;9.206;2024-02-26T02:01:36;14.30;57.40
32394;DHT22;18853;45.426;9.206;2024-02-26T02:04:04;14.30;57.70
32394;DHT22;18853;45.426;9.206;2024-02-26T02:06:30;14.30;57.70
32394;DHT22;18853;45.426;9.206;2024-02-26T02:08:56;14.30;57.90
32394;DHT22;18853;45.426;9.206;2024-02-26T02:11:22;14.30;57.90
32394;DHT22;18853;45.426;9.206;2024-02-26T02:13:47;14.20;58.00
32394;DHT22;18853;45.426;9.206;2024-02-26T02:16:13;14.20;58.10
32394;DHT22;18853;45.426;9.206;2024-02-26T02:18:39;14.20;58.20
32394;DHT22;18853;45.426;9.206;2024-02-26T02:21:04;14.20;58.30
32394;DHT22;18853;45.426;9.206;2024-02-26T02:23:30;14.20;58.60
32394;DHT22;18853;45.426;9.206;2024-02-26T02:25:57;14.10;58.50
32394;DHT22;18853;45.426;9.206;2024-02-26T02:28:25;14.20;58.60
32394;DHT22;18853;45.426;9.206;2024-02-26T02:30:51;14.20;58.60
32394;DHT22;18853;45.426;9.206;2024-02-26T02:33:17;14.20;58.80
32394;DHT22;18853;45.426;9.206;2024-02-26T02:35:43;14.20;58.90
32394;DHT22;18853;45.426;9.206;2024-02-26T02:38:08;14.20;58.90
32394;DHT22;18853;45.426;9.206;2024-02-26T02:40:34;14.10;58.80
32394;DHT22;18853;45.426;9.206;2024-02-26T02:43:00;14.10;58.60
32394;DHT22;18853;45.426;9.206;2024-02-26T02:45:27;14.20;58.80
32394;DHT22;18853;45.426;9.206;2024-02-26T02:47:53;14.20;59.10
32394;DHT22;18853;45.426;9.206;2024-02-26T02:50:18;14.20;59.00
32394;DHT22;18853;45.426;9.206;2024-02-26T02:52:44;14.20;58.90
32394;DHT22;18853;45.426;9.206;2024-02-26T02:55:09;14.20;58.90
32394;DHT22;18853;45.426;9.206;2024-02-26T02:57:35;14.10;59.00
32394;DHT22;18853;45.426;9.206;2024-02-26T03:00:09;14.10;58.60
32394;DHT22;18853;45.426;9.206;2024-02-26T03:02:35;14.10;58.60
32394;DHT22;18853;45.426;9.206;2024-02-26T03:05:04;14.10;58.90
32394;DHT22;18853;45.426;9.206;2024-02-26T03:07:30;14.10;58.60
32394;DHT22;18853;45.426;9.206;2024-02-26T03:09:56;14.10;58.70
32394;DHT22;18853;45.426;9.206;2024-02-26T03:12:21;14.10;58.70
32394;DHT22;18853;45.426;9.206;2024-02-26T03:14:47;14.10;58.70
32394;DHT22;18853;45.426;9.206;2024-02-26T03:17:12;14.10;58.70
32394;DHT22;18853;45.426;9.206;2024-02-26T03:19:38;14.10;58.80
32394;DHT22;18853;45.426;9.206;2024-02-26T03:22:04;14.00;59.00
32394;DHT22;18853;45.426;9.206;2024-02-26T03:24:29;14.00;59.10
32394;DHT22;18853;45.426;9.206;2024-02-26T03:26:55;14.00;59.10
32394;DHT22;18853;45.426;9.206;2024-02-26T03:29:20;14.00;59.20
32394;DHT22;18853;45.426;9.206;2024-02-26T03:31:46;14.00;59.10
32394;DHT22;18853;45.426;9.206;2024-02-26T03:34:11;13.90;58.90
32394;DHT22;18853;45.426;9.206;2024-02-26T03:36:39;14.00;58.80
32394;DHT22;18853;45.426;9.206;2024-02-26T03:39:04;14.00;58.70
32394;DHT22;18853;45.426;9.206;2024-02-26T03:41:33;14.00;58.90
32394;DHT22;18853;45.426;9.206;2024-02-26T03:43:58;14.00;58.90
32394;DHT22;18853;45.426;9.206;2024-02-26T03:46:24;14.00;58.70
32394;DHT22;18853;45.426;9.206;2024-02-26T03:48:50;13.90;58.80
32394;DHT22;18853;45.426;9.206;2024-02-26T03:51:15;13.90;58.70
32394;DHT22;18853;45.426;9.206;2024-02-26T03:53:41;13.90;58.70
32394;DHT22;18853;45.426;9.206;2024-02-26T03:56:07;13.80;59.40
32394;DHT22;18853;45.426;9.206;2024-02-26T03:58:32;13.90;59.00
32394;DHT22;18853;45.426;9.206;2024-02-26T04:00:59;13.80;58.90
32394;DHT22;18853;45.426;9.206;2024-02-26T04:03:25;13.80;58.70
32394;DHT22;18853;45.426;9.206;2024-02-26T04:05:51;13.80;58.80
32394;DHT22;18853;45.426;9.206;2024-02-26T04:08:16;13.80;59.00
32394;DHT22;18853;45.426;9.206;2024-02-26T04:10:42;13.80;58.90
32394;DHT22;18853;45.426;9.206;2024-02-26T04:13:08;13.80;58.90
32394;DHT22;18853;45.426;9.206;2024-02-26T04:15:33;13.70;59.10
32394;DHT22;18853;45.426;9.206;2024-02-26T04:17:59;13.70;59.10
32394;DHT22;18853;45.426;9.206;2024-02-26T04:20:25;13.80;59.30
32394;DHT22;18853;45.426;9.206;2024-02-26T04:22:50;13.80;59.10
32394;DHT22;18853;45.426;9.206;2024-02-26T04:25:16;13.80;59.20
32394;DHT22;18853;45.426;9.206;2024-02-26T04:27:41;13.70;59.00
32394;DHT22;18853;45.426;9.206;2024-02-26T04:30:08;13.70;58.90
32394;DHT22;18853;45.426;9.206;2024-02-26T04:32:34;13.70;59.00
32394;DHT22;18853;45.426;9.206;2024-02-26T04:35:00;13.60;59.50
32394;DHT22;18853;45.426;9.206;2024-02-26T04:37:26;13.60;59.10
32394;DHT22;18853;45.426;9.206;2024-02-26T04:39:59;13.60;59.10
32394;DHT22;18853;45.426;9.206;2024-02-26T04:42:25;13.60;59.20
32394;DHT22;18853;45.426;9.206;2024-02-26T04:44:51;13.60;59.30
32394;DHT22;18853;45.426;9.206;2024-02-26T04:47:17;13.60;59.50
32394;DHT22;18853;45.426;9.206;2024-02-26T04:49:42;13.60;59.50
32394;DHT22;18853;45.426;9.206;2024-02-26T04:52:08;13.70;59.60
32394;DHT22;18853;45.426;9.206;2024-02-26T04:54:34;13.60;59.50
32394;DHT22;18853;45.426;9.206;2024-02-26T04:56:59;13.60;59.40
32394;DHT22;18853;45.426;9.206;2024-02-26T04:59:25;13.60;59.50
32394;DHT22;18853;45.426;9.206;2024-02-26T05:01:50;13.60;59.70
32394;DHT22;18853;45.426;9.206;2024-02-26T05:04:18;13.60;59.70
32394;DHT22;18853;45.426;9.206;2024-02-26T05:06:43;13.60;59.80
32394;DHT22;18853;45.426;9.206;2024-02-26T05:09:09;13.60;59.70
32394;DHT22;18853;45.426;9.206;2024-02-26T05:11:34;13.60;59.80
32394;DHT22;18853;45.426;9.206;2024-02-26T05:14:00;13.60;59.90
32394;DHT22;18853;45.426;9.206;2024-02-26T05:16:26;13.60;59.90
32394;DHT22;18853;45.426;9.206;2024-02-26T05:18:53;13.60;60.10
32394;DHT22;18853;45.426;9.206;2024-02-26T05:21:18;13.50;60.20
32394;DHT22;18853;45.426;9.206;2024-02-26T05:23:44;13.50;60.30
32394;DHT22;18853;45.426;9.206;2024-02-26T05:26:10;13.50;60.40
32394;DHT22;18853;45.426;9.206;2024-02-26T05:28:36;13.50;60.60
32394;DHT22;18853;45.426;9.206;2024-02-26T05:31:04;13.50;60.50
32394;DHT22;18853;45.426;9.206;2024-02-26T05:33:30;13.50;60.60
32394;DHT22;18853;45.426;9.206;2024-02-26T05:35:56;13.50;60.50
32394;DHT22;18853;45.426;9.206;2024-02-26T05:38:21;13.50;60.50
32394;DHT22;18853;45.426;9.206;2024-02-26T05:40:47;13.50;60.60
32394;DHT22;18853;45.426;9.206;2024-02-26T05:43:12;13.50;60.70
32394;DHT22;18853;45.426;9.206;2024-02-26T05:45:40;13.50;60.80
32394;DHT22;18853;45.426;9.206;2024-02-26T05:48:06;13.50;60.80
32394;DHT22;18853;45.426;9.206;2024-02-26T05:50:32;13.50;60.70
32394;DHT22;18853;45.426;9.206;2024-02-26T05:52:57;13.50;60.80
32394;DHT22;18853;45.426;9.206;2024-02-26T05:55:23;13.50;60.70
32394;DHT22;18853;45.426;9.206;2024-02-26T05:57:48;13.40;60.90
32394;DHT22;18853;45.426;9.206;2024-02-26T06:00:15;13.40;61.00
32394;DHT22;18853;45.426;9.206;2024-02-26T06:02:40;13.40;61.10
32394;DHT22;18853;45.426;9.206;2024-02-26T06:05:06;13.40;61.00
32394;DHT22;18853;45.426;9.206;2024-02-26T06:07:34;13.40;61.10
32394;DHT22;18853;45.426;9.206;2024-02-26T06:10:00;13.40;61.80
32394;DHT22;18853;45.426;9.206;2024-02-26T06:12:26;13.40;61.10
32394;DHT22;18853;45.426;9.206;2024-02-26T06:14:53;13.40;61.20
32394;DHT22;18853;45.426;9.206;2024-02-26T06:17:19;13.40;61.30
32394;DHT22;18853;45.426;9.206;2024-02-26T06:19:45;13.40;61.40
32394;DHT22;18853;45.426;9.206;2024-02-26T06:22:10;13.40;61.40
32394;DHT22;18853;45.426;9.206;2024-02-26T06:24:36;13.40;61.50
32394;DHT22;18853;45.426;9.206;2024-02-26T06:27:02;13.40;61.50
32394;DHT22;18853;45.426;9.206;2024-02-26T06:29:28;13.40;61.50
32394;DHT22;18853;45.426;9.206;2024-02-26T06:31:53;13.40;61.40
32394;DHT22;18853;45.426;9.206;2024-02-26T06:34:19;13.40;61.50
32394;DHT22;18853;45.426;9.206;2024-02-26T06:36:44;13.40;61.50
32394;DHT22;18853;45.426;9.206;2024-02-26T06:39:10;13.40;61.70
32394;DHT22;18853;45.426;9.206;2024-02-26T06:41:36;13.40;61.80
32394;DHT22;18853;45.426;9.206;2024-02-26T06:44:01;13.40;61.60
32394;DHT22;18853;45.426;9.206;2024-02-26T06:46:27;13.40;61.50
32394;DHT22;18853;45.426;9.206;2024-02-26T06:48:56;13.40;61.50
32394;DHT22;18853;45.426;9.206;2024-02-26T06:51:22;13.40;61.70
32394;DHT22;18853;45.426;9.206;2024-02-26T06:53:48;13.30;61.60
32394;DHT22;18853;45.426;9.206;2024-02-26T06:56:14;13.30;61.60
32394;DHT22;18853;45.426;9.206;2024-02-26T06:58:39;13.30;61.80
32394;DHT22;18853;45.426;9.206;2024-02-26T07:01:05;13.30;61.70
32394;DHT22;18853;45.426;9.206;2024-02-26T07:03:31;13.30;61.60
32394;DHT22;18853;45.426;9.206;2024-02-26T07:05:58;13.30;61.60
32394;DHT22;18853;45.426;9.206;2024-02-26T07:08:23;13.30;61.60
32394;DHT22;18853;45.426;9.206;2024-02-26T07:10:49;13.30;61.60
32394;DHT22;18853;45.426;9.206;2024-02-26T07:13:14;13.30;61.80
32394;DHT22;18853;45.426;9.206;2024-02-26T07:15:40;13.30;61.80
32394;DHT22;18853;45.426;9.206;2024-02-26T07:18:05;13.30;61.90
32394;DHT22;18853;45.426;9.206;2024-02-26T07:20:31;13.40;61.80
32394;DHT22;18853;45.426;9.206;2024-02-26T07:22:57;13.40;61.90
32394;DHT22;18853;45.426;9.206;2024-02-26T07:25:23;13.30;61.80
32394;DHT22;18853;45.426;9.206;2024-02-26T07:27:50;13.40;62.70
32394;DHT22;18853;45.426;9.206;2024-02-26T07:30:15;13.30;62.10
32394;DHT22;18853;45.426;9.206;2024-02-26T07:32:42;13.30;62.30
32394;DHT22;18853;45.426;9.206;2024-02-26T07:35:08;13.30;62.30
32394;DHT22;18853;45.426;9.206;2024-02-26T07:37:33;13.30;62.50
32394;DHT22;18853;45.426;9.206;2024-02-26T07:40:00;13.30;62.40
32394;DHT22;18853;45.426;9.206;2024-02-26T07:42:25;13.30;62.50
32394;DHT22;18853;45.426;9.206;2024-02-26T07:44:51;13.30;62.50
32394;DHT22;18853;45.426;9.206;2024-02-26T07:47:16;13.30;62.60
32394;DHT22;18853;45.426;9.206;2024-02-26T07:49:42;13.30;62.60
32394;DHT22;18853;45.426;9.206;2024-02-26T07:52:07;13.30;62.60
32394;DHT22;18853;45.426;9.206;2024-02-26T07:54:33;13.30;62.60
32394;DHT22;18853;45.426;9.206;2024-02-26T07:56:58;13.30;62.60
32394;DHT22;18853;45.426;9.206;2024-02-26T07:59:24;13.30;62.60
32394;DHT22;18853;45.426;9.206;2024-02-26T08:01:50;13.30;62.70
32394;DHT22;18853;45.426;9.206;2024-02-26T08:04:16;13.40;62.70
32394;DHT22;18853;45.426;9.206;2024-02-26T08:06:42;13.40;62.90
32394;DHT22;18853;45.426;9.206;2024-02-26T08:09:08;13.30;62.90
32394;DHT22;18853;45.426;9.206;2024-02-26T08:11:34;13.30;62.90
32394;DHT22;18853;45.426;9.206;2024-02-26T08:13:59;13.30;62.90
32394;DHT22;18853;45.426;9.206;2024-02-26T08:16:25;13.30;63.00
32394;DHT22;18853;45.426;9.206;2024-02-26T08:18:50;13.40;62.90
32394;DHT22;18853;45.426;9.206;2024-02-26T08:21:16;13.30;62.60
32394;DHT22;18853;45.426;9.206;2024-02-26T08:23:43;13.40;62.60
32394;DHT22;18853;45.426;9.206;2024-02-26T08:26:09;13.40;62.80
32394;DHT22;18853;45.426;9.206;2024-02-26T08:28:37;13.40;62.90
32394;DHT22;18853;45.426;9.206;2024-02-26T08:31:03;13.40;62.80
32394;DHT22;18853;45.426;9.206;2024-02-26T08:33:28;13.40;62.70
32394;DHT22;18853;45.426;9.206;2024-02-26T08:35:55;13.40;62.70
32394;DHT22;18853;45.426;9.206;2024-02-26T08:38:21;13.50;62.60
32394;DHT22;18853;45.426;9.206;2024-02-26T08:40:47;13.50;62.50
32394;DHT22;18853;45.426;9.206;2024-02-26T08:43:12;13.40;62.60
32394;DHT22;18853;45.426;9.206;2024-02-26T08:45:38;13.50;62.50
32394;DHT22;18853;45.426;9.206;2024-02-26T08:48:04;13.40;62.60
32394;DHT22;18853;45.426;9.206;2024-02-26T08:50:29;13.40;62.60
32394;DHT22;18853;45.426;9.206;2024-02-26T08:52:55;13.40;62.70
32394;DHT22;18853;45.426;9.206;2024-02-26T08:55:20;13.40;63.00
32394;DHT22;18853;45.426;9.206;2024-02-26T08:57:46;13.40;63.00
32394;DHT22;18853;45.426;9.206;2024-02-26T09:00:12;13.40;62.90
32394;DHT22;18853;45.426;9.206;2024-02-26T09:02:38;13.40;62.90
32394;DHT22;18853;45.426;9.206;2024-02-26T09:05:05;13.40;63.00
32394;DHT22;18853;45.426;9.206;2024-02-26T09:07:31;13.40;62.90
32394;DHT22;18853;45.426;9.206;2024-02-26T09:09:56;13.40;63.00
32394;DHT22;18853;45.426;9.206;2024-02-26T09:12:22;13.40;63.10
32394;DHT22;18853;45.426;9.206;2024-02-26T09:14:49;13.30;63.00
32394;DHT22;18853;45.426;9.206;2024-02-26T09:17:14;13.40;63.20
32394;DHT22;18853;45.426;9.206;2024-02-26T09:19:40;13.40;63.20
32394;DHT22;18853;45.426;9.206;2024-02-26T09:22:07;13.30;63.20
32394;DHT22;18853;45.426;9.206;2024-02-26T09:24:33;13.40;63.50
32394;DHT22;18853;45.426;9.206;2024-02-26T09:26:59;13.40;63.60
32394;DHT22;18853;45.426;9.206;2024-02-26T09:29:24;13.40;63.70
32394;DHT22;18853;45.426;9.206;2024-02-26T09:31:51;13.40;63.50
32394;DHT22;18853;45.426;9.206;2024-02-26T09:34:17;13.30;63.30
32394;DHT22;18853;45.426;9.206;2024-02-26T09:36:43;13.40;63.30
32394;DHT22;18853;45.426;9.206;2024-02-26T09:39:08;13.30;64.10
32394;DHT22;18853;45.426;9.206;2024-02-26T09:41:37;13.20;63.60
32394;DHT22;18853;45.426;9.206;2024-02-26T09:44:04;13.30;63.70
32394;DHT22;18853;45.426;9.206;2024-02-26T09:46:30;13.30;63.70
32394;DHT22;18853;45.426;9.206;2024-02-26T09:48:56;13.30;63.70
32394;DHT22;18853;45.426;9.206;2024-02-26T09:51:23;13.30;63.80
32394;DHT22;18853;45.426;9.206;2024-02-26T09:53:52;13.20;64.30
32394;DHT22;18853;45.426;9.206;2024-02-26T09:56:18;13.20;63.60
32394;DHT22;18853;45.426;9.206;2024-02-26T09:58:43;13.20;63.60
32394;DHT22;18853;45.426;9.206;2024-02-26T10:01:16;13.30;63.70
32394;DHT22;18853;45.426;9.206;2024-02-26T10:03:43;13.30;63.90
32394;DHT22;18853;45.426;9.206;2024-02-26T10:06:10;13.20;63.90
32394;DHT22;18853;45.426;9.206;2024-02-26T10:08:37;13.20;63.70
32394;DHT22;18853;45.426;9.206;2024-02-26T10:11:08;13.20;63.70
32394;DHT22;18853;45.426;9.206;2024-02-26T10:13:37;13.20;63.40
32394;DHT22;18853;45.426;9.206;2024-02-26T10:16:03;13.20;63.40
32394;DHT22;18853;45.426;9.206;2024-02-26T10:21:14;13.20;63.60
32394;DHT22;18853;45.426;9.206;2024-02-26T10:23:43;13.10;63.50
32394;DHT22;18853;45.426;9.206;2024-02-26T10:26:10;13.20;63.50
32394;DHT22;18853;45.426;9.206;2024-02-26T10:28:38;13.20;63.80
32394;DHT22;18853;45.426;9.206;2024-02-26T10:31:04;13.10;63.70
32394;DHT22;18853;45.426;9.206;2024-02-26T10:33:29;13.10;63.70
32394;DHT22;18853;45.426;9.206;2024-02-26T10:35:55;13.10;63.50
32394;DHT22;18853;45.426;9.206;2024-02-26T10:38:20;13.10;63.40
32394;DHT22;18853;45.426;9.206;2024-02-26T10:40:48;13.10;63.60
32394;DHT22;18853;45.426;9.206;2024-02-26T10:43:14;13.10;63.70
32394;DHT22;18853;45.426;9.206;2024-02-26T10:45:42;13.10;63.70
32394;DHT22;18853;45.426;9.206;2024-02-26T10:48:13;13.10;63.70
32394;DHT22;18853;45.426;9.206;2024-02-26T10:50:39;13.10;63.80
32394;DHT22;18853;45.426;9.206;2024-02-26T10:53:15;13.10;63.70
32394;DHT22;18853;45.426;9.206;2024-02-26T10:55:45;13.10;63.50
32394;DHT22;18853;45.426;9.206;2024-02-26T10:58:12;13.10;63.50
32394;DHT22;18853;45.426;9.206;2024-02-26T11:00:39;13.10;63.70
32394;DHT22;18853;45.426;9.206;2024-02-26T11:03:06;13.10;63.50
32394;DHT22;18853;45.426;9.206;2024-02-26T11:05:33;13.20;63.50
32394;DHT22;18853;45.426;9.206;2024-02-26T11:08:00;13.10;63.70
32394;DHT22;18853;45.426;9.206;2024-02-26T11:10:27;13.10;63.50
32394;DHT22;18853;45.426;9.206;2024-02-26T11:12:55;13.10;63.50
32394;DHT22;18853;45.426;9.206;2024-02-26T11:15:23;13.10;63.50
32394;DHT22;18853;45.426;9.206;2024-02-26T11:17:48;13.10;63.80
32394;DHT22;18853;45.426;9.206;2024-02-26T11:20:15;13.10;63.80
32394;DHT22;18853;45.426;9.206;2024-02-26T11:22:41;13.10;63.70
32394;DHT22;18853;45.426;9.206;2024-02-26T11:25:07;13.20;63.80
32394;DHT22;18853;45.426;9.206;2024-02-26T11:27:47;13.10;63.60
32394;DHT22;18853;45.426;9.206;2024-02-26T11:30:15;13.20;63.70
32394;DHT22;18853;45.426;9.206;2024-02-26T11:32:46;13.20;63.70
32394;DHT22;18853;45.426;9.206;2024-02-26T11:35:12;13.20;63.90
32394;DHT22;18853;45.426;9.206;2024-02-26T11:37:41;13.20;64.60
32394;DHT22;18853;45.426;9.206;2024-02-26T11:40:11;13.10;63.80
32394;DHT22;18853;45.426;9.206;2024-02-26T11:42:43;13.10;63.80
32394;DHT22;18853;45.426;9.206;2024-02-26T11:48:20;13.10;64.30
32394;DHT22;18853;45.426;9.206;2024-02-26T11:50:48;13.10;64.50
32394;DHT22;18853;45.426;9.206;2024-02-26T11:56:13;13.00;63.00
32394;DHT22;18853;45.426;9.206;2024-02-26T11:58:46;13.00;63.10
32394;DHT22;18853;45.426;9.206;2024-02-26T12:01:50;12.80;63.20
32394;DHT22;18853;45.426;9.206;2024-02-26T12:04:25;12.90;62.90
32394;DHT22;18853;45.426;9.206;2024-02-26T12:07:02;12.90;63.10
32394;DHT22;18853;45.426;9.206;2024-02-26T12:09:37;12.90;63.40
32394;DHT22;18853;45.426;9.206;2024-02-26T12:12:05;12.90;63.50
32394;DHT22;18853;45.426;9.206;2024-02-26T12:14:59;12.90;63.60
32394;DHT22;18853;45.426;9.206;2024-02-26T12:17:25;12.90;63.70
32394;DHT22;18853;45.426;9.206;2024-02-26T12:19:51;12.90;63.80
32394;DHT22;18853;45.426;9.206;2024-02-26T12:22:19;12.90;63.60
32394;DHT22;18853;45.426;9.206;2024-02-26T12:24:45;12.90;63.40
32394;DHT22;18853;45.426;9.206;2024-02-26T12:27:11;12.90;63.50
32394;DHT22;18853;45.426;9.206;2024-02-26T12:29:36;12.90;63.50
32394;DHT22;18853;45.426;9.206;2024-02-26T12:32:03;12.90;63.70
32394;DHT22;18853;45.426;9.206;2024-02-26T12:34:29;13.00;63.90
32394;DHT22;18853;45.426;9.206;2024-02-26T12:36:55;13.00;63.80
32394;DHT22;18853;45.426;9.206;2024-02-26T12:39:22;13.00;63.90
32394;DHT22;18853;45.426;9.206;2024-02-26T12:41:49;13.10;64.00
32394;DHT22;18853;45.426;9.206;2024-02-26T12:44:16;13.10;64.10
32394;DHT22;18853;45.426;9.206;2024-02-26T12:46:42;13.10;64.20
32394;DHT22;18853;45.426;9.206;2024-02-26T12:49:08;13.10;64.40
32394;DHT22;18853;45.426;9.206;2024-02-26T12:51:34;13.10;64.60
32394;DHT22;18853;45.426;9.206;2024-02-26T12:54:00;13.10;64.80
32394;DHT22;18853;45.426;9.206;2024-02-26T12:56:27;13.20;64.90
32394;DHT22;18853;45.426;9.206;2024-02-26T12:58:54;13.20;64.70
32394;DHT22;18853;45.426;9.206;2024-02-26T13:01:23;13.10;64.70
32394;DHT22;18853;45.426;9.206;2024-02-26T13:03:50;13.10;64.80
32394;DHT22;18853;45.426;9.206;2024-02-26T13:06:17;13.10;64.50
32394;DHT22;18853;45.426;9.206;2024-02-26T13:08:44;13.00;64.70
32394;DHT22;18853;45.426;9.206;2024-02-26T13:11:09;13.00;64.40
32394;DHT22;18853;45.426;9.206;2024-02-26T13:13:35;13.00;64.30
32394;DHT22;18853;45.426;9.206;2024-02-26T13:16:05;13.00;64.20
32394;DHT22;18853;45.426;9.206;2024-02-26T13:18:32;13.00;64.10
32394;DHT22;18853;45.426;9.206;2024-02-26T13:21:11;13.00;64.00
32394;DHT22;18853;45.426;9.206;2024-02-26T13:23:40;13.10;63.70
32394;DHT22;18853;45.426;9.206;2024-02-26T13:26:06;13.00;63.90
32394;DHT22;18853;45.426;9.206;2024-02-26T13:28:33;13.00;63.60
32394;DHT22;18853;45.426;9.206;2024-02-26T13:31:00;12.90;63.40
32394;DHT22;18853;45.426;9.206;2024-02-26T13:33:27;12.90;63.40
32394;DHT22;18853;45.426;9.206;2024-02-26T13:35:54;12.90;63.60
32394;DHT22;18853;45.426;9.206;2024-02-26T13:38:19;12.90;63.30
32394;DHT22;18853;45.426;9.206;2024-02-26T13:40:45;12.80;63.20
32394;DHT22;18853;45.426;9.206;2024-02-26T13:43:11;12.80;63.20
32394;DHT22;18853;45.426;9.206;2024-02-26T13:45:37;12.90;63.40
32394;DHT22;18853;45.426;9.206;2024-02-26T13:48:05;12.90;63.30
32394;DHT22;18853;45.426;9.206;2024-02-26T13:50:31;12.90;63.40
32394;DHT22;18853;45.426;9.206;2024-02-26T13:52:56;12.80;63.40
32394;DHT22;18853;45.426;9.206;2024-02-26T13:55:23;12.80;63.50
32394;DHT22;18853;45.426;9.206;2024-02-26T13:57:52;12.80;63.40
32394;DHT22;18853;45.426;9.206;2024-02-26T14:00:19;12.90;63.40
32394;DHT22;18853;45.426;9.206;2024-02-26T14:02:44;12.80;63.00
32394;DHT22;18853;45.426;9.206;2024-02-26T14:05:10;12.80;63.20
32394;DHT22;18853;45.426;9.206;2024-02-26T14:07:36;12.80;63.00
32394;DHT22;18853;45.426;9.206;2024-02-26T14:10:01;12.80;63.00
32394;DHT22;18853;45.426;9.206;2024-02-26T14:12:27;12.80;63.10
32394;DHT22;18853;45.426;9.206;2024-02-26T14:14:53;12.90;63.00
32394;DHT22;18853;45.426;9.206;2024-02-26T14:17:21;12.90;63.90
32394;DHT22;18853;45.426;9.206;2024-02-26T14:19:47;12.90;63.20
32394;DHT22;18853;45.426;9.206;2024-02-26T14:22:14;12.90;63.30
32394;DHT22;18853;45.426;9.206;2024-02-26T14:24:40;12.90;63.30
32394;DHT22;18853;45.426;9.206;2024-02-26T14:27:08;12.90;63.30
32394;DHT22;18853;45.426;9.206;2024-02-26T14:29:35;12.90;63.50
32394;DHT22;18853;45.426;9.206;2024-02-26T14:32:00;12.90;63.60
32394;DHT22;18853;45.426;9.206;2024-02-26T14:34:27;12.90;63.80
32394;DHT22;18853;45.426;9.206;2024-02-26T14:36:52;13.00;63.90
32394;DHT22;18853;45.426;9.206;2024-02-26T14:39:18;13.00;63.90
32394;DHT22;18853;45.426;9.206;2024-02-26T14:41:43;12.90;63.90
32394;DHT22;18853;45.426;9.206;2024-02-26T14:44:09;12.90;64.10
32394;DHT22;18853;45.426;9.206;2024-02-26T14:46:36;12.90;64.20
32394;DHT22;18853;45.426;9.206;2024-02-26T14:49:01;12.90;63.90
32394;DHT22;18853;45.426;9.206;2024-02-26T14:51:27;12.90;64.00
32394;DHT22;18853;45.426;9.206;2024-02-26T14:53:53;12.90;64.20
32394;DHT22;18853;45.426;9.206;2024-02-26T14:56:18;12.90;64.10
32394;DHT22;18853;45.426;9.206;2024-02-26T14:58:44;13.00;64.50
32394;DHT22;18853;45.426;9.206;2024-02-26T15:01:11;12.90;64.20
32394;DHT22;18853;45.426;9.206;2024-02-26T15:03:37;13.00;64.10
32394;DHT22;18853;45.426;9.206;2024-02-26T15:06:02;12.90;64.10
32394;DHT22;18853;45.426;9.206;2024-02-26T15:08:28;13.00;64.20
32394;DHT22;18853;45.426;9.206;2024-02-26T15:10:54;13.00;64.50
32394;DHT22;18853;45.426;9.206;2024-02-26T15:13:20;13.00;64.50
32394;DHT22;18853;45.426;9.206;2024-02-26T15:15:46;12.90;64.40
32394;DHT22;18853;45.426;9.206;2024-02-26T15:18:11;12.90;64.40
32394;DHT22;18853;45.426;9.206;2024-02-26T15:20:41;12.90;64.60
32394;DHT22;18853;45.426;9.206;2024-02-26T15:23:07;12.90;64.60
32394;DHT22;18853;45.426;9.206;2024-02-26T15:25:33;12.90;64.90
32394;DHT22;18853;45.426;9.206;2024-02-26T15:27:58;12.90;64.90
32394;DHT22;18853;45.426;9.206;2024-02-26T15:30:24;13.00;64.80
32394;DHT22;18853;45.426;9.206;2024-02-26T15:32:50;13.00;64.70
32394;DHT22;18853;45.426;9.206;2024-02-26T15:35:15;13.00;64.40